createdAt,value
2017-12-29T00:02:19.974Z,1.50
2017-12-29T00:04:48.234Z,1.60
2017-12-29T00:07:16.520Z,1.60
2017-12-29T00:09:44.784Z,1.50
2017-12-29T00:12:13.102Z,1.50
2017-12-29T00:14:40.597Z,1.50
2017-12-29T00:17:08.096Z,1.50
2017-12-29T00:19:36.395Z,1.50
2017-12-29T00:22:03.898Z,1.50
2017-12-29T00:24:31.423Z,1.50
2017-12-29T00:26:58.951Z,1.50
2017-12-29T00:29:26.463Z,1.50
2017-12-29T00:31:54.155Z,1.60
2017-12-29T00:34:22.419Z,1.40
2017-12-29T00:36:49.954Z,1.40
2017-12-29T00:39:17.455Z,1.40
2017-12-29T00:41:45.715Z,1.50
2017-12-29T00:44:13.239Z,1.50
2017-12-29T00:46:40.766Z,1.50
2017-12-29T00:49:08.286Z,1.50
2017-12-29T00:51:35.789Z,1.50
2017-12-29T00:54:03.314Z,1.50
2017-12-29T00:56:31.579Z,1.50
2017-12-29T00:58:59.119Z,1.50
2017-12-29T01:01:26.622Z,1.50
2017-12-29T01:03:55.103Z,1.50
2017-12-29T01:06:23.386Z,1.40
2017-12-29T01:08:51.681Z,1.50
2017-12-29T01:11:19.182Z,1.50
2017-12-29T01:13:46.679Z,1.50
2017-12-29T01:16:14.968Z,1.40
2017-12-29T01:18:42.462Z,1.40
2017-12-29T01:21:09.998Z,1.40
2017-12-29T01:23:37.495Z,1.40
2017-12-29T01:26:05.790Z,1.40
2017-12-29T01:28:34.060Z,1.40
2017-12-29T01:31:01.603Z,1.40
2017-12-29T01:33:29.130Z,1.30
2017-12-29T01:35:56.655Z,1.20
2017-12-29T01:38:24.950Z,1.20
2017-12-29T01:40:52.453Z,1.20
2017-12-29T01:43:19.970Z,1.20
2017-12-29T01:45:47.491Z,1.20
2017-12-29T01:48:15.012Z,1.20
2017-12-29T01:50:42.531Z,1.30
2017-12-29T01:53:10.822Z,1.20
2017-12-29T01:55:38.312Z,1.20
2017-12-29T01:58:05.834Z,1.10
2017-12-29T02:00:34.131Z,1.30
2017-12-29T02:03:01.634Z,1.20
2017-12-29T02:05:29.125Z,1.20
2017-12-29T02:07:57.419Z,1.10
2017-12-29T02:10:24.927Z,1.10
2017-12-29T02:12:52.455Z,1.10
2017-12-29T02:15:19.951Z,1.10
2017-12-29T02:17:47.485Z,1.10
2017-12-29T02:20:14.979Z,1.00
2017-12-29T02:22:43.274Z,1.00
2017-12-29T02:25:11.541Z,1.00
2017-12-29T02:27:39.834Z,1.10
2017-12-29T02:30:07.348Z,1.10
2017-12-29T02:32:34.880Z,1.00
2017-12-29T02:35:02.382Z,1.00
2017-12-29T02:37:29.910Z,1.10
2017-12-29T02:39:57.410Z,1.10
2017-12-29T02:42:25.718Z,1.10
2017-12-29T02:44:53.224Z,1.10
2017-12-29T02:47:20.839Z,1.10
2017-12-29T02:49:48.372Z,1.10
2017-12-29T02:52:16.648Z,1.00
2017-12-29T02:54:44.949Z,1.00
2017-12-29T02:57:12.455Z,1.00
2017-12-29T02:59:40.071Z,1.00
2017-12-29T03:02:07.605Z,1.00
2017-12-29T03:04:35.878Z,1.10
2017-12-29T03:07:04.175Z,1.10
2017-12-29T03:09:31.676Z,1.10
2017-12-29T03:11:59.214Z,1.00
2017-12-29T03:14:26.715Z,1.10
2017-12-29T03:16:54.215Z,1.10
2017-12-29T03:19:21.742Z,1.10
2017-12-29T03:21:50.011Z,1.00
2017-12-29T03:24:17.537Z,1.10
2017-12-29T03:26:45.044Z,1.00
2017-12-29T03:29:13.346Z,1.00
2017-12-29T03:31:40.884Z,1.00
2017-12-29T03:34:09.156Z,1.00
2017-12-29T03:36:37.447Z,1.00
2017-12-29T03:39:04.944Z,1.10
2017-12-29T03:41:32.484Z,1.00
2017-12-29T03:43:59.991Z,1.00
2017-12-29T03:46:27.515Z,1.00
2017-12-29T03:48:55.021Z,1.10
2017-12-29T03:51:23.314Z,0.90
2017-12-29T03:53:50.839Z,0.90
2017-12-29T03:56:18.342Z,1.00
2017-12-29T03:58:45.874Z,1.00
2017-12-29T04:01:14.141Z,1.00
2017-12-29T04:03:41.645Z,1.00
2017-12-29T04:06:09.174Z,1.00
2017-12-29T04:08:37.434Z,1.00
2017-12-29T04:11:04.959Z,1.00
2017-12-29T04:13:32.478Z,1.10
2017-12-29T04:16:00.743Z,1.10
2017-12-29T04:18:29.042Z,1.10
2017-12-29T04:20:56.551Z,1.10
2017-12-29T04:23:24.059Z,1.10
2017-12-29T04:25:51.574Z,1.10
2017-12-29T04:28:19.084Z,1.10
2017-12-29T04:30:46.602Z,1.00
2017-12-29T04:33:14.100Z,1.00
2017-12-29T04:35:41.627Z,1.00
2017-12-29T04:38:09.891Z,0.90
2017-12-29T04:40:37.421Z,0.90
2017-12-29T04:43:04.926Z,0.90
2017-12-29T04:45:33.224Z,0.90
2017-12-29T04:48:00.723Z,0.90
2017-12-29T04:50:28.275Z,1.00
2017-12-29T04:52:55.774Z,1.00
2017-12-29T04:55:24.850Z,1.10
2017-12-29T04:57:52.375Z,1.00
2017-12-29T05:00:19.876Z,1.10
2017-12-29T05:02:47.399Z,1.00
2017-12-29T05:05:14.903Z,1.00
2017-12-29T05:07:43.198Z,1.00
2017-12-29T05:10:11.466Z,1.00
2017-12-29T05:12:39.753Z,1.00
2017-12-29T05:15:07.266Z,1.00
2017-12-29T05:17:34.793Z,1.00
2017-12-29T05:20:02.298Z,1.00
2017-12-29T05:22:29.821Z,0.90
2017-12-29T05:24:57.338Z,0.80
2017-12-29T05:27:25.594Z,0.80
2017-12-29T05:29:53.109Z,0.80
2017-12-29T05:32:20.632Z,0.80
2017-12-29T05:34:48.932Z,0.90
2017-12-29T05:37:16.442Z,0.90
2017-12-29T05:39:43.936Z,0.90
2017-12-29T05:42:11.463Z,0.90
2017-12-29T05:44:38.966Z,1.00
2017-12-29T05:47:06.486Z,1.00
2017-12-29T05:49:33.989Z,0.90
2017-12-29T05:52:01.535Z,1.00
2017-12-29T05:54:29.056Z,1.00
2017-12-29T05:56:56.555Z,1.00
2017-12-29T05:59:24.080Z,1.10
2017-12-29T06:01:51.579Z,1.10
2017-12-29T06:04:19.115Z,1.00
2017-12-29T06:06:47.382Z,1.10
2017-12-29T06:09:15.656Z,1.10
2017-12-29T06:11:43.946Z,1.10
2017-12-29T06:14:12.213Z,1.20
2017-12-29T06:16:40.521Z,1.10
2017-12-29T06:19:08.026Z,1.10
2017-12-29T06:21:35.558Z,1.10
2017-12-29T06:24:03.055Z,1.10
2017-12-29T06:26:30.591Z,1.10
2017-12-29T06:28:58.094Z,1.20
2017-12-29T06:31:26.391Z,1.30
2017-12-29T06:33:53.887Z,1.30
2017-12-29T06:36:21.413Z,1.20
2017-12-29T06:38:48.910Z,1.30
2017-12-29T06:41:16.440Z,1.30
2017-12-29T06:43:43.942Z,1.30
2017-12-29T06:46:11.437Z,1.30
2017-12-29T06:48:38.961Z,1.30
2017-12-29T06:51:06.454Z,1.20
2017-12-29T06:53:33.973Z,1.30
2017-12-29T06:56:01.472Z,1.30
2017-12-29T06:58:28.998Z,1.40
2017-12-29T07:00:56.504Z,1.30
2017-12-29T07:03:24.036Z,1.30
2017-12-29T07:05:52.307Z,1.20
2017-12-29T07:08:20.605Z,1.20
2017-12-29T07:10:48.099Z,1.20
2017-12-29T07:13:15.620Z,1.20
2017-12-29T07:15:43.122Z,1.30
2017-12-29T07:18:10.642Z,1.30
2017-12-29T07:20:38.157Z,1.30
2017-12-29T07:23:05.692Z,1.20
2017-12-29T07:25:33.214Z,1.20
2017-12-29T07:28:00.717Z,1.10
2017-12-29T07:30:28.241Z,1.10
2017-12-29T07:32:55.743Z,1.20
2017-12-29T07:35:23.274Z,1.20
2017-12-29T07:37:50.783Z,1.30
2017-12-29T07:40:19.066Z,1.40
2017-12-29T07:42:47.330Z,1.40
2017-12-29T07:45:14.851Z,1.30
2017-12-29T07:47:42.354Z,1.30
2017-12-29T07:50:10.655Z,1.30
2017-12-29T07:52:38.159Z,1.30
2017-12-29T07:55:05.696Z,1.40
2017-12-29T07:57:33.164Z,1.40
2017-12-29T08:00:00.710Z,1.40
2017-12-29T08:02:28.238Z,1.40
2017-12-29T08:04:56.517Z,1.40
2017-12-29T08:07:24.850Z,1.50
2017-12-29T08:09:53.142Z,1.50
2017-12-29T08:12:20.663Z,1.50
2017-12-29T08:14:48.201Z,1.50
2017-12-29T08:17:16.477Z,1.50
2017-12-29T08:19:43.974Z,1.50
2017-12-29T08:22:11.608Z,1.60
2017-12-29T08:24:39.105Z,1.60
2017-12-29T08:27:06.626Z,1.70
2017-12-29T08:29:34.122Z,1.70
2017-12-29T08:32:01.647Z,1.70
2017-12-29T08:34:29.151Z,1.70
2017-12-29T08:36:56.682Z,1.80
2017-12-29T08:39:24.187Z,1.90
2017-12-29T08:41:52.483Z,1.90
2017-12-29T08:44:20.010Z,1.80
2017-12-29T08:46:47.534Z,2.00
2017-12-29T08:49:15.060Z,1.90
2017-12-29T08:51:42.554Z,1.90
2017-12-29T08:54:10.073Z,2.00
2017-12-29T08:56:37.587Z,2.00
2017-12-29T08:59:05.115Z,2.10
2017-12-29T09:01:32.614Z,2.10
2017-12-29T09:04:00.161Z,2.20
2017-12-29T09:06:27.679Z,2.20
2017-12-29T09:08:55.398Z,2.30
2017-12-29T09:11:22.926Z,2.30
2017-12-29T09:13:50.434Z,2.40
2017-12-29T09:16:18.723Z,2.50
2017-12-29T09:18:47.007Z,2.60
2017-12-29T09:21:14.528Z,2.50
2017-12-29T09:23:42.046Z,2.60
2017-12-29T09:26:09.550Z,2.70
2017-12-29T09:28:37.069Z,2.70
2017-12-29T09:31:05.351Z,2.80
2017-12-29T09:33:32.995Z,2.80
2017-12-29T09:36:00.501Z,2.70
2017-12-29T09:38:28.006Z,2.80
2017-12-29T09:40:55.534Z,2.70
2017-12-29T09:43:23.818Z,2.70
2017-12-29T09:45:52.090Z,2.80
2017-12-29T09:48:20.378Z,2.80
2017-12-29T09:50:48.636Z,2.80
2017-12-29T09:53:16.919Z,2.90
2017-12-29T09:55:45.183Z,3.00
2017-12-29T09:58:12.711Z,3.00
2017-12-29T10:00:40.224Z,3.10
2017-12-29T10:03:08.742Z,3.10
2017-12-29T10:05:36.626Z,3.10
2017-12-29T10:08:04.947Z,3.20
2017-12-29T10:10:33.549Z,3.10
2017-12-29T10:13:01.923Z,3.00
2017-12-29T10:15:29.513Z,3.00
2017-12-29T10:17:57.039Z,3.10
2017-12-29T10:20:25.336Z,3.10
2017-12-29T10:22:53.215Z,3.10
2017-12-29T10:25:20.727Z,3.10
2017-12-29T10:27:49.010Z,3.10
2017-12-29T10:30:17.323Z,3.10
2017-12-29T10:32:45.112Z,3.00
2017-12-29T10:35:12.741Z,3.10
2017-12-29T10:37:41.109Z,3.20
2017-12-29T10:40:08.618Z,3.20
2017-12-29T10:42:36.110Z,3.30
2017-12-29T10:45:04.408Z,3.40
2017-12-29T10:47:31.910Z,3.40
2017-12-29T10:49:59.438Z,3.40
2017-12-29T10:52:26.933Z,3.30
2017-12-29T10:54:54.445Z,3.30
2017-12-29T10:57:21.984Z,3.40
2017-12-29T11:02:24.175Z,3.40
2017-12-29T11:04:52.433Z,3.40
2017-12-29T11:07:20.714Z,3.40
2017-12-29T11:09:48.967Z,3.40
2017-12-29T11:12:16.490Z,3.40
2017-12-29T11:14:43.984Z,3.50
2017-12-29T11:17:11.499Z,3.50
2017-12-29T11:19:39.000Z,3.50
2017-12-29T11:22:06.530Z,3.50
2017-12-29T11:24:34.037Z,3.50
2017-12-29T11:27:02.326Z,3.50
2017-12-29T11:29:30.589Z,3.50
2017-12-29T11:31:58.883Z,3.50
2017-12-29T11:34:27.151Z,3.50
2017-12-29T11:36:55.454Z,3.50
2017-12-29T11:39:22.959Z,3.50
2017-12-29T11:41:50.459Z,3.50
2017-12-29T11:44:17.996Z,3.40
2017-12-29T11:46:46.258Z,3.50
2017-12-29T11:49:13.782Z,3.50
2017-12-29T11:51:41.275Z,3.60
2017-12-29T11:54:08.798Z,3.60
2017-12-29T11:56:36.292Z,3.60
2017-12-29T11:59:03.826Z,3.60
2017-12-29T12:01:31.330Z,3.60
2017-12-29T12:03:59.622Z,3.60
2017-12-29T12:06:27.123Z,3.60
2017-12-29T12:08:54.623Z,3.50
2017-12-29T12:11:22.909Z,3.60
2017-12-29T12:13:51.174Z,3.70
2017-12-29T12:16:19.458Z,3.60
2017-12-29T12:18:47.722Z,3.50
2017-12-29T12:21:16.011Z,3.50
2017-12-29T12:23:44.267Z,3.40
2017-12-29T12:26:11.783Z,3.50
2017-12-29T12:28:39.281Z,3.50
2017-12-29T12:31:06.804Z,3.40
2017-12-29T12:33:34.304Z,3.40
2017-12-29T12:36:01.831Z,3.30
2017-12-29T12:38:29.335Z,3.30
2017-12-29T12:40:57.623Z,3.20
2017-12-29T12:43:25.143Z,3.10
2017-12-29T12:45:52.665Z,3.20
2017-12-29T12:48:20.192Z,3.20
2017-12-29T12:50:48.457Z,3.10
2017-12-29T12:53:16.754Z,3.00
2017-12-29T12:55:45.018Z,3.00
2017-12-29T12:58:13.294Z,3.00
2017-12-29T13:00:41.573Z,3.00
2017-12-29T13:03:09.858Z,3.00
2017-12-29T13:05:38.154Z,2.90
2017-12-29T13:08:05.659Z,2.90
2017-12-29T13:10:33.178Z,2.90
2017-12-29T13:13:00.679Z,3.00
2017-12-29T13:15:28.195Z,3.00
2017-12-29T13:17:55.699Z,3.00
2017-12-29T13:20:24.006Z,3.00
2017-12-29T13:22:52.270Z,3.00
2017-12-29T13:25:20.560Z,3.00
2017-12-29T13:27:48.822Z,3.10
2017-12-29T13:30:19.599Z,3.10
2017-12-29T13:32:47.107Z,3.10
2017-12-29T13:35:14.599Z,3.20
2017-12-29T13:37:42.129Z,3.30
2017-12-29T13:40:09.647Z,3.30
2017-12-29T13:42:37.910Z,3.30
2017-12-29T13:45:05.436Z,3.30
2017-12-29T13:47:33.723Z,3.10
2017-12-29T13:50:01.992Z,3.10
2017-12-29T13:52:30.279Z,3.00
2017-12-29T13:54:57.819Z,3.00
2017-12-29T13:57:25.982Z,3.00
2017-12-29T13:59:53.596Z,3.00
2017-12-29T14:02:22.371Z,2.90
2017-12-29T14:04:49.912Z,2.80
2017-12-29T14:07:18.867Z,2.60
2017-12-29T14:09:46.371Z,2.60
2017-12-29T14:12:13.919Z,2.50
2017-12-29T14:14:42.186Z,2.20
2017-12-29T14:17:10.471Z,2.30
2017-12-29T14:19:38.780Z,2.10
2017-12-29T14:22:06.323Z,2.10
2017-12-29T14:24:33.835Z,2.00
2017-12-29T14:27:01.354Z,1.90
2017-12-29T14:29:28.853Z,2.00
2017-12-29T14:31:56.377Z,1.80
2017-12-29T14:34:23.877Z,1.60
2017-12-29T14:36:51.391Z,1.60
2017-12-29T14:39:18.895Z,1.70
2017-12-29T14:41:46.416Z,1.70
2017-12-29T14:44:13.915Z,1.70
2017-12-29T14:46:41.440Z,1.80
2017-12-29T14:49:08.927Z,1.90
2017-12-29T14:51:36.462Z,1.90
2017-12-29T14:54:03.972Z,1.90
2017-12-29T14:56:32.230Z,2.00
2017-12-29T14:58:59.750Z,2.00
2017-12-29T15:01:27.285Z,2.10
2017-12-29T15:03:55.558Z,2.10
2017-12-29T15:06:23.051Z,2.20
2017-12-29T15:08:50.585Z,2.20
2017-12-29T15:11:18.091Z,2.20
2017-12-29T15:13:45.592Z,2.30
2017-12-29T15:16:13.108Z,2.30
2017-12-29T15:18:40.602Z,2.30
2017-12-29T15:21:08.895Z,2.40
2017-12-29T15:23:36.400Z,2.40
2017-12-29T15:26:03.918Z,2.50
2017-12-29T15:28:31.442Z,2.50
2017-12-29T15:30:59.722Z,2.50
2017-12-29T15:33:28.010Z,2.60
2017-12-29T15:35:56.307Z,2.60
2017-12-29T15:38:31.129Z,2.60
2017-12-29T15:40:59.423Z,2.60
2017-12-29T15:43:26.986Z,2.60
2017-12-29T15:45:54.483Z,2.60
2017-12-29T15:48:21.978Z,2.70
2017-12-29T15:50:49.503Z,2.70
2017-12-29T15:53:17.022Z,2.70
2017-12-29T15:55:47.201Z,2.70
2017-12-29T15:58:16.963Z,2.70
2017-12-29T16:00:45.350Z,2.70
2017-12-29T16:03:12.867Z,2.70
2017-12-29T16:05:40.369Z,2.70
2017-12-29T16:08:07.907Z,2.70
2017-12-29T16:10:35.402Z,2.80
2017-12-29T16:13:02.913Z,2.80
2017-12-29T16:15:30.440Z,2.90
2017-12-29T16:17:58.712Z,2.80
2017-12-29T16:20:27.000Z,2.80
2017-12-29T16:22:55.465Z,2.80
2017-12-29T16:25:23.815Z,2.80
2017-12-29T16:30:25.472Z,2.90
2017-12-29T16:32:52.975Z,2.80
2017-12-29T16:35:20.555Z,2.80
2017-12-29T16:37:49.715Z,2.80
2017-12-29T16:40:17.316Z,2.80
2017-12-29T16:42:45.680Z,2.80
2017-12-29T16:45:14.334Z,2.90
2017-12-29T16:47:41.862Z,2.90
2017-12-29T16:50:09.411Z,3.00
2017-12-29T16:52:37.115Z,3.00
2017-12-29T16:55:04.720Z,3.10
2017-12-29T16:57:33.007Z,3.20
2017-12-29T17:00:00.510Z,3.20
2017-12-29T17:02:28.042Z,3.30
2017-12-29T17:04:57.137Z,3.40
2017-12-29T17:07:26.299Z,3.50
2017-12-29T17:09:54.733Z,3.60
2017-12-29T17:12:22.477Z,3.60
2017-12-29T17:14:51.152Z,3.60
2017-12-29T17:17:19.722Z,3.60
2017-12-29T17:19:49.278Z,3.70
2017-12-29T17:22:17.754Z,3.60
2017-12-29T17:24:45.297Z,3.70
2017-12-29T17:27:12.818Z,3.60
2017-12-29T17:29:41.084Z,3.60
2017-12-29T17:32:08.615Z,3.60
2017-12-29T17:34:37.106Z,3.60
2017-12-29T17:37:04.618Z,3.60
2017-12-29T17:39:32.114Z,3.50
2017-12-29T17:41:59.635Z,3.40
2017-12-29T17:44:27.130Z,3.40
2017-12-29T17:46:54.646Z,3.40
2017-12-29T17:49:22.166Z,3.50
2017-12-29T17:51:49.684Z,3.40
2017-12-29T17:54:17.207Z,3.40
2017-12-29T17:56:45.476Z,3.40
2017-12-29T17:59:13.776Z,3.40
2017-12-29T18:01:41.274Z,3.40
2017-12-29T18:04:08.795Z,3.40
2017-12-29T18:06:36.302Z,3.40
2017-12-29T18:09:03.842Z,3.40
2017-12-29T18:11:31.362Z,3.50
2017-12-29T18:13:59.631Z,3.40
2017-12-29T18:16:27.923Z,3.40
2017-12-29T18:18:55.444Z,3.40
2017-12-29T18:21:22.942Z,3.30
2017-12-29T18:23:50.466Z,3.40
2017-12-29T18:26:17.962Z,3.40
2017-12-29T18:28:45.506Z,3.40
2017-12-29T18:31:13.772Z,3.30
2017-12-29T18:33:42.031Z,3.40
2017-12-29T18:36:09.555Z,3.40
2017-12-29T18:38:37.078Z,3.40
2017-12-29T18:41:05.364Z,3.40
2017-12-29T18:43:32.914Z,3.40
2017-12-29T18:46:01.218Z,3.40
2017-12-29T18:48:28.718Z,3.50
2017-12-29T18:50:56.243Z,3.50
2017-12-29T18:53:23.736Z,3.60
2017-12-29T18:55:51.226Z,3.60
2017-12-29T18:58:19.514Z,3.70
2017-12-29T19:00:47.011Z,3.70
2017-12-29T19:03:14.533Z,3.70
2017-12-29T19:05:42.034Z,3.70
2017-12-29T19:08:09.934Z,3.70
2017-12-29T19:10:38.198Z,3.90
2017-12-29T19:13:05.713Z,3.80
2017-12-29T19:15:33.207Z,3.80
2017-12-29T19:18:00.722Z,3.80
2017-12-29T19:20:28.228Z,3.90
2017-12-29T19:22:55.784Z,3.90
2017-12-29T19:25:23.385Z,4.00
2017-12-29T19:27:50.902Z,4.00
2017-12-29T19:30:18.402Z,4.00
2017-12-29T19:32:45.926Z,4.00
2017-12-29T19:35:13.539Z,4.10
2017-12-29T19:37:41.107Z,4.10
2017-12-29T19:40:08.759Z,4.10
2017-12-29T19:42:36.316Z,4.20
2017-12-29T19:45:03.824Z,4.30
2017-12-29T19:47:31.347Z,4.30
2017-12-29T19:49:58.886Z,4.40
2017-12-29T19:52:26.564Z,4.50
2017-12-29T19:54:54.083Z,4.60
2017-12-29T19:57:22.360Z,4.60
2017-12-29T19:59:50.649Z,4.70
2017-12-29T20:02:18.174Z,4.60
2017-12-29T20:04:45.702Z,4.70
2017-12-29T20:07:13.198Z,4.70
2017-12-29T20:09:40.702Z,4.80
2017-12-29T20:12:08.234Z,4.80
2017-12-29T20:14:36.524Z,4.80
2017-12-29T20:17:04.787Z,4.80
2017-12-29T20:19:33.079Z,4.80
2017-12-29T20:22:00.596Z,4.80
2017-12-29T20:24:28.114Z,4.80
2017-12-29T20:26:55.646Z,4.80
2017-12-29T20:29:23.930Z,4.80
2017-12-29T20:31:51.431Z,4.80
2017-12-29T20:34:18.954Z,4.80
2017-12-29T20:36:47.391Z,4.80
2017-12-29T20:39:15.284Z,4.90
2017-12-29T20:41:43.116Z,4.80
2017-12-29T20:44:11.456Z,4.90
2017-12-29T20:46:38.999Z,4.90
2017-12-29T20:49:07.262Z,4.90
2017-12-29T20:51:35.542Z,4.90
2017-12-29T20:54:03.840Z,4.90
2017-12-29T20:56:31.355Z,4.90
2017-12-29T20:58:58.876Z,5.00
2017-12-29T21:01:26.391Z,5.00
2017-12-29T21:03:53.937Z,4.90
2017-12-29T21:06:21.441Z,5.00
2017-12-29T21:08:48.991Z,4.90
2017-12-29T21:11:17.335Z,4.90
2017-12-29T21:13:44.881Z,4.80
2017-12-29T21:16:12.383Z,4.80
2017-12-29T21:18:39.905Z,4.80
2017-12-29T21:21:07.440Z,4.80
2017-12-29T21:23:34.946Z,4.80
2017-12-29T21:26:03.268Z,4.90
2017-12-29T21:28:30.791Z,4.90
2017-12-29T21:30:59.282Z,5.00
2017-12-29T21:33:26.801Z,5.00
2017-12-29T21:35:54.337Z,5.00
2017-12-29T21:38:21.859Z,4.90
2017-12-29T21:40:49.384Z,5.00
2017-12-29T21:43:16.936Z,5.00
2017-12-29T21:45:44.448Z,5.00
2017-12-29T21:48:11.955Z,5.00
2017-12-29T21:50:39.534Z,5.00
2017-12-29T21:53:07.806Z,5.00
2017-12-29T21:55:36.079Z,5.10
2017-12-29T21:58:04.368Z,5.00
2017-12-29T22:00:32.635Z,5.00
2017-12-29T22:03:00.946Z,5.00
2017-12-29T22:05:28.468Z,5.00
2017-12-29T22:07:56.739Z,5.10
2017-12-29T22:10:24.239Z,5.10
2017-12-29T22:12:51.772Z,5.10
2017-12-29T22:15:20.043Z,5.10
2017-12-29T22:17:48.307Z,5.10
2017-12-29T22:20:15.832Z,5.10
2017-12-29T22:22:43.348Z,5.00
2017-12-29T22:25:11.621Z,5.10
2017-12-29T22:27:39.931Z,5.10
2017-12-29T22:30:07.437Z,5.10
2017-12-29T22:32:35.049Z,5.10
2017-12-29T22:35:02.579Z,5.10
2017-12-29T22:37:30.846Z,5.10
2017-12-29T22:39:59.126Z,5.10
2017-12-29T22:42:27.421Z,5.10
2017-12-29T22:44:54.939Z,5.10
2017-12-29T22:47:22.451Z,5.00
2017-12-29T22:49:49.969Z,5.10
2017-12-29T22:52:18.244Z,5.10
2017-12-29T22:54:45.745Z,5.10
2017-12-29T22:57:13.282Z,5.10
2017-12-29T22:59:41.555Z,5.20
2017-12-29T23:02:09.823Z,5.10
2017-12-29T23:04:38.221Z,5.10
2017-12-29T23:07:06.495Z,5.10
2017-12-29T23:09:34.769Z,5.20
2017-12-29T23:12:03.055Z,5.10
2017-12-29T23:14:30.571Z,5.10
2017-12-29T23:16:58.072Z,5.10
2017-12-29T23:19:25.601Z,5.20
2017-12-29T23:21:53.105Z,5.10
2017-12-29T23:24:20.606Z,5.10
2017-12-29T23:26:48.130Z,5.10
2017-12-29T23:29:15.635Z,5.10
2017-12-29T23:31:43.143Z,5.10
2017-12-29T23:34:10.668Z,5.00
2017-12-29T23:36:38.936Z,5.00
2017-12-29T23:39:07.203Z,5.00
2017-12-29T23:41:34.786Z,5.00
2017-12-29T23:44:02.256Z,4.90
2017-12-29T23:46:29.755Z,4.90
2017-12-29T23:48:57.282Z,4.80
2017-12-29T23:53:58.663Z,4.80
2017-12-29T23:56:26.161Z,4.70
2017-12-29T23:58:53.667Z,4.60
